KDUA

Details ICAO KDUA
Name EAKER FLD
Region United States
Timezone America/Chicago (UTC-5.0)
Plans Departing 7
Arriving 3
Stats Elevation 698 ft / 213 m (AMSL)
Location 33.942174° -96.395040°
Runways 1
Magnetic Variation 2.983° E
Sunrise 2018-05-20 11:22:21 UTC / 2018-05-20 06:22:21 Local
Sunset 2018-05-21 01:24:45 UTC / 2018-05-20 20:24:45 Local
Advertisement - Login to hide

Runways

ID Width Length Bearing (true) Bearing (mag) Surface Threshold Offset Overrun Length
17 100 ft / 30 m 5,014 ft / 1,528 m 180.34° 177.36° Asphalt 0 ft / 0 m 0 ft / 0 m
35 100 ft / 30 m 5,014 ft / 1,528 m 0.34° 357.36° Asphalt 0 ft / 0 m 0 ft / 0 m

Map

Weather


0- 5 10 15 20 25 30 35+ Temperature / ° C

Clouds and Precipitation
Forecast for 2018-05-20 18:00 UTC. Updated an hour ago

Ground ~20,000 ft ~40,000 ft Winds

METAR

KDUA 201835Z AUTO 24003KT 10SM BKN110 25/17 A3003 RMK AO2

TAF

Not found

Frequencies

Recorded 124.17 MHz AWOS 3
Unicom 122.80 MHz CTAF/UNICOM
Warning: Do not use this data for real-world aviation or navigation. No guarantee of current accuracy is given.